createdAt,value
2022-11-27T00:03:00.195Z,8.40
2022-11-27T00:13:04.379Z,7.70
2022-11-27T00:23:08.228Z,8.60
2022-11-27T00:33:12.439Z,8.20
2022-11-27T00:43:16.066Z,8.70
2022-11-27T00:53:19.962Z,10.10
2022-11-27T01:03:24.648Z,10.80
2022-11-27T01:13:31.653Z,9.50
2022-11-27T01:23:35.477Z,10.70
2022-11-27T01:33:40.079Z,11.10
2022-11-27T01:43:53.213Z,10.90
2022-11-27T01:53:57.992Z,10.00
2022-11-27T02:04:02.715Z,10.50
2022-11-27T02:14:18.455Z,10.80
2022-11-27T02:24:59.769Z,10.80
2022-11-27T02:35:47.439Z,12.90
2022-11-27T02:45:53.052Z,11.90
2022-11-27T02:55:59.719Z,10.70
2022-11-27T03:06:10.420Z,19.20
2022-11-27T03:16:19.904Z,18.20
2022-11-27T03:26:23.978Z,15.90
2022-11-27T03:36:27.536Z,18.20
2022-11-27T03:47:07.797Z,17.50
2022-11-27T03:57:44.935Z,17.70
2022-11-27T04:07:48.668Z,11.00
2022-11-27T04:17:52.301Z,5.40
2022-11-27T04:27:56.467Z,5.10
2022-11-27T04:38:00.202Z,8.00
2022-11-27T04:48:04.850Z,7.80
2022-11-27T04:58:08.642Z,14.00
2022-11-27T05:08:12.599Z,12.60
2022-11-27T05:18:16.328Z,12.20
2022-11-27T05:28:26.287Z,12.80
2022-11-27T05:38:30.629Z,14.60
2022-11-27T05:48:35.848Z,11.90
2022-11-27T05:58:40.415Z,11.70
2022-11-27T06:08:45.186Z,11.90
2022-11-27T06:18:53.700Z,13.90
2022-11-27T06:29:02.130Z,19.80
2022-11-27T06:39:07.056Z,17.50
2022-11-27T06:49:10.903Z,18.50
2022-11-27T06:59:17.747Z,18.30
2022-11-27T07:09:21.609Z,16.50
2022-11-27T07:19:25.581Z,14.60
2022-11-27T07:29:29.444Z,15.30
2022-11-27T07:40:00.306Z,16.40
2022-11-27T07:49:58.891Z,16.40
2022-11-27T08:00:02.954Z,19.10
2022-11-27T08:10:08.795Z,17.30
2022-11-27T08:20:12.834Z,10.70
2022-11-27T08:30:16.914Z,6.30
2022-11-27T08:40:21.826Z,5.80
2022-11-27T08:50:26.512Z,6.00
2022-11-27T09:00:33.075Z,19.10
2022-11-27T09:10:38.181Z,12.10
2022-11-27T09:20:42.507Z,22.90
2022-11-27T09:30:47.084Z,14.40
2022-11-27T09:40:53.569Z,12.40
2022-11-27T09:50:58.204Z,9.70
2022-11-27T10:01:02.590Z,9.90
2022-11-27T10:11:14.238Z,9.30
2022-11-27T10:21:24.439Z,10.50
2022-11-27T10:31:37.496Z,13.60
2022-11-27T10:41:57.579Z,14.20
2022-11-27T10:52:01.430Z,14.70
2022-11-27T11:02:07.989Z,12.90
2022-11-27T11:12:21.669Z,13.70
2022-11-27T11:22:25.937Z,11.70
2022-11-27T11:32:40.922Z,33.10
2022-11-27T11:43:03.016Z,10.30
2022-11-27T11:53:13.923Z,16.40
2022-11-27T12:03:51.723Z,9.90
2022-11-27T12:14:21.571Z,18.60
2022-11-27T12:24:25.564Z,16.90
2022-11-27T12:34:55.567Z,17.00
2022-11-27T12:45:09.362Z,13.40
2022-11-27T12:55:22.087Z,14.30
2022-11-27T13:05:30.881Z,11.20
2022-11-27T13:15:40.085Z,13.20
2022-11-27T13:25:50.579Z,13.20
2022-11-27T13:35:56.006Z,11.90
2022-11-27T13:46:21.401Z,12.80
2022-11-27T13:56:31.810Z,13.90
2022-11-27T14:06:37.651Z,13.40
2022-11-27T14:16:58.873Z,12.40
2022-11-27T14:27:16.922Z,11.70
2022-11-27T14:37:26.702Z,15.00
2022-11-27T14:47:31.415Z,18.50
2022-11-27T14:57:36.732Z,18.90
2022-11-27T15:07:47.998Z,15.20
2022-11-27T15:18:21.419Z,21.00
2022-11-27T15:28:37.281Z,29.00
2022-11-27T15:38:42.618Z,49.80
2022-11-27T15:48:47.286Z,34.60
2022-11-27T15:58:52.156Z,33.40
2022-11-27T16:09:02.038Z,30.20
2022-11-27T16:19:07.298Z,24.50
2022-11-27T16:29:11.767Z,29.50
2022-11-27T16:39:18.983Z,23.90
2022-11-27T16:49:23.719Z,25.40
2022-11-27T16:59:27.900Z,24.10
2022-11-27T17:09:32.906Z,29.10
2022-11-27T17:19:37.515Z,28.90
2022-11-27T17:29:43.262Z,24.90
2022-11-27T17:39:49.422Z,24.80
2022-11-27T17:49:54.849Z,25.50
2022-11-27T18:00:00.186Z,26.40
2022-11-27T18:10:06.365Z,26.60
2022-11-27T18:20:11.683Z,29.50
2022-11-27T18:30:17.388Z,28.20
2022-11-27T18:40:22.416Z,44.10
2022-11-27T18:50:30.048Z,47.00
2022-11-27T19:00:34.838Z,39.30
2022-11-27T19:10:39.927Z,33.60
2022-11-27T19:20:45.662Z,38.70
2022-11-27T19:30:51.160Z,29.40
2022-11-27T19:40:56.970Z,34.60
2022-11-27T19:51:03.199Z,32.20
2022-11-27T20:01:17.310Z,29.90
2022-11-27T20:11:32.673Z,27.60
2022-11-27T20:21:41.399Z,29.20
2022-11-27T20:31:47.130Z,31.80
2022-11-27T20:41:54.357Z,34.70
2022-11-27T20:52:04.334Z,34.50
2022-11-27T21:02:13.526Z,35.70
2022-11-27T21:12:18.850Z,46.70
2022-11-27T21:22:22.929Z,51.30
2022-11-27T21:32:27.783Z,43.80
2022-11-27T21:42:33.338Z,38.10
2022-11-27T21:52:37.502Z,41.10
2022-11-27T22:02:45.757Z,40.30
2022-11-27T22:12:49.742Z,41.60
2022-11-27T22:22:54.156Z,40.70
2022-11-27T22:32:58.200Z,37.70
2022-11-27T22:43:02.399Z,36.80
2022-11-27T22:53:06.142Z,35.50
2022-11-27T23:03:10.584Z,35.20
2022-11-27T23:13:15.380Z,40.80
2022-11-27T23:23:19.011Z,37.40
2022-11-27T23:33:23.146Z,37.60
2022-11-27T23:43:27.014Z,38.80
2022-11-27T23:53:30.717Z,38.00
